Time;durP1;ratioP1;P1;durP2;ratioP2;P2;SDS_P1;SDS_P2;PMS_P1;PMS_P2;Temp;Humidity;BMP_temperature;BMP_pressure;BME280_temperature;BME280_humidity;BME280_pressure;Samples;Min_cycle;Max_cycle;Signal;HPM_P1;HPM_P2
2020/12/04 00:00:22;;;;;;;;;;;;;;;-2.57;89.24;90683.66;1065253;55;20173;-81
2020/12/04 00:01:23;;;;;;;;;;;;;;;-2.61;89.30;90688.94;1063235;56;20165;-83
2020/12/04 00:02:23;;;;;;;;;;;;;;;-2.50;88.32;90680.19;1061092;56;20542;-82
2020/12/04 00:03:23;;;;;;;;;;;;;;;-2.45;88.32;90680.50;1063243;56;20189;-83
2020/12/04 00:04:24;;;;;;;;;;;;;;;-2.54;90.55;90675.03;1061082;56;20185;-81
2020/12/04 00:05:25;;;;;;;;;;;;;;;-2.58;89.32;90663.87;1061143;56;20200;-84
2020/12/04 00:06:26;;;;;;;;;;;;;;;-2.53;88.57;90669.41;1061265;56;20354;-83
2020/12/04 00:07:27;;;;;;;;;;;;;;;-2.51;89.42;90670.88;1063309;56;20192;-84
2020/12/04 00:08:27;;;;;;;;;;;;;;;-2.61;89.48;90668.00;1062823;55;20197;-85
2020/12/04 00:09:28;;;;;;;;;;;;;;;-2.63;88.87;90667.66;1064607;55;20265;-84
2020/12/04 00:10:29;;;;;;;;;;;;;;;-2.64;90.59;90670.66;1065569;55;20303;-83
2020/12/04 00:11:33;;;;;;;;;;;;;;;-2.60;90.05;90677.31;1065405;55;20158;-84
2020/12/04 00:12:33;;;;;;;;;;;;;;;-2.63;90.28;90667.66;1061196;55;20197;-83
2020/12/04 00:13:34;;;;;;;;;;;;;;;-2.65;89.62;90675.16;1063265;56;20170;-83
2020/12/04 00:14:34;;;;;;;;;;;;;;;-2.70;90.61;90672.97;1063179;56;20161;-83
2020/12/04 00:15:35;;;;;;;;;;;;;;;-2.74;91.08;90664.44;1065553;55;20650;-81
2020/12/04 00:16:36;;;;;;;;;;;;;;;-2.70;90.50;90672.25;1065457;55;20189;-83
2020/12/04 00:17:36;;;;;;;;;;;;;;;-2.68;90.43;90660.25;1063444;55;21153;-84
2020/12/04 00:18:37;;;;;;;;;;;;;;;-2.70;91.14;90654.69;1065495;55;20173;-84
2020/12/04 00:19:37;;;;;;;;;;;;;;;-2.69;90.09;90644.97;1067632;55;20165;-83
2020/12/04 00:20:38;;;;;;;;;;;;;;;-2.69;90.72;90650.94;1063377;56;20251;-83
2020/12/04 00:21:39;;;;;;;;;;;;;;;-2.63;91.78;90646.03;1061373;55;20162;-82
2020/12/04 00:22:40;;;;;;;;;;;;;;;-2.63;89.65;90640.78;1065486;55;20303;-84
2020/12/04 00:23:41;;;;;;;;;;;;;;;-2.65;89.77;90640.44;1065410;55;20607;-84
2020/12/04 00:24:41;;;;;;;;;;;;;;;-2.58;89.11;90637.72;1063372;56;20279;-84
2020/12/04 00:25:42;;;;;;;;;;;;;;;-2.61;89.63;90647.09;1061094;56;20304;-84
2020/12/04 00:26:42;;;;;;;;;;;;;;;-2.74;89.82;90640.19;1061249;56;20166;-84
2020/12/04 00:27:42;;;;;;;;;;;;;;;-2.76;89.29;90642.47;1061132;56;20182;-83
2020/12/04 00:28:43;;;;;;;;;;;;;;;-2.73;89.90;90634.53;1063209;56;20241;-82
2020/12/04 00:29:43;;;;;;;;;;;;;;;-2.78;90.23;90625.28;1067577;55;20641;-83
2020/12/04 00:30:44;;;;;;;;;;;;;;;-2.64;90.47;90626.22;1065371;55;20270;-83
2020/12/04 00:31:45;;;;;;;;;;;;;;;-2.70;90.45;90638.25;1065325;55;20165;-83
2020/12/04 00:32:47;;;;;;;;;;;;;;;-2.73;90.78;90631.94;1065481;55;20165;-84
2020/12/04 00:33:48;;;;;;;;;;;;;;;-2.64;90.52;90620.97;1063200;56;20162;-83
2020/12/04 00:34:48;;;;;;;;;;;;;;;-2.65;91.38;90622.12;1063282;56;20188;-85
2020/12/04 00:35:49;;;;;;;;;;;;;;;-2.72;90.77;90620.38;1063336;55;21120;-81
2020/12/04 00:36:50;;;;;;;;;;;;;;;-2.81;91.32;90635.75;1063330;56;20154;-83
2020/12/04 00:37:51;;;;;;;;;;;;;;;-2.78;91.01;90632.38;1063282;55;20293;-83
2020/12/04 00:38:51;;;;;;;;;;;;;;;-2.77;90.63;90633.84;1061035;56;20186;-83
2020/12/04 00:39:52;;;;;;;;;;;;;;;-2.71;92.07;90627.06;1063074;56;20150;-82
2020/12/04 00:40:52;;;;;;;;;;;;;;;-2.74;91.24;90624.50;1065343;55;20172;-83
2020/12/04 00:41:57;;;;;;;;;;;;;;;-2.72;90.95;90633.44;1067483;55;21231;-83
2020/12/04 00:42:57;;;;;;;;;;;;;;;-2.71;90.36;90627.06;1067491;55;20250;-84
2020/12/04 00:43:58;;;;;;;;;;;;;;;-2.75;90.81;90623.75;1063190;56;20665;-83
2020/12/04 00:44:59;;;;;;;;;;;;;;;-2.73;91.18;90634.53;1065341;55;20184;-83
2020/12/04 00:45:59;;;;;;;;;;;;;;;-2.76;91.77;90622.28;1067435;55;20185;-84
2020/12/04 00:47:02;;;;;;;;;;;;;;;-2.69;90.79;90630.00;1067452;55;20180;-82
2020/12/04 00:48:03;;;;;;;;;;;;;;;-2.72;90.96;90630.06;1067283;55;20261;-82
2020/12/04 00:49:03;;;;;;;;;;;;;;;-2.76;91.13;90632.75;1067311;55;20652;-82
2020/12/04 00:50:04;;;;;;;;;;;;;;;-2.78;91.11;90622.66;1067411;55;20176;-83
2020/12/04 00:51:05;;;;;;;;;;;;;;;-2.79;92.24;90610.00;1065166;55;20189;-83
2020/12/04 00:52:06;;;;;;;;;;;;;;;-2.71;91.50;90618.47;1063035;55;20158;-84
2020/12/04 00:53:07;;;;;;;;;;;;;;;-2.72;91.92;90607.28;1063412;55;20196;-82
2020/12/04 00:54:08;;;;;;;;;;;;;;;-2.73;91.30;90612.91;1068078;55;20212;-82
2020/12/04 00:55:08;;;;;;;;;;;;;;;-2.75;91.08;90618.53;1063607;55;20173;-83
2020/12/04 00:56:09;;;;;;;;;;;;;;;-2.76;91.37;90611.81;1065723;55;20164;-84
2020/12/04 00:57:09;;;;;;;;;;;;;;;-2.80;91.76;90601.41;1063630;55;20192;-83
2020/12/04 00:58:11;;;;;;;;;;;;;;;-2.69;91.19;90613.59;1063537;55;20626;-82
2020/12/04 00:59:11;;;;;;;;;;;;;;;-2.79;91.70;90623.78;1063698;55;20185;-84
2020/12/04 01:00:12;;;;;;;;;;;;;;;-2.75;91.81;90599.50;1063611;55;20158;-83
2020/12/04 01:01:12;;;;;;;;;;;;;;;-2.78;91.17;90606.22;1063535;55;20158;-82
2020/12/04 01:02:13;;;;;;;;;;;;;;;-2.73;90.82;90605.78;1065569;55;20180;-83
2020/12/04 01:03:16;;;;;;;;;;;;;;;-2.76;91.75;90614.44;1063803;55;20174;-82
2020/12/04 01:04:16;;;;;;;;;;;;;;;-2.76;91.79;90600.63;1061615;56;20181;-84
2020/12/04 01:05:17;;;;;;;;;;;;;;;-2.76;92.45;90590.91;1061427;56;20182;-82
2020/12/04 01:06:17;;;;;;;;;;;;;;;-2.76;92.40;90598.03;1063526;55;20654;-83
2020/12/04 01:07:18;;;;;;;;;;;;;;;-2.78;92.12;90588.69;1065827;55;20263;-83
2020/12/04 01:08:19;;;;;;;;;;;;;;;-2.80;92.54;90587.59;1067811;55;20165;-83
2020/12/04 01:09:19;;;;;;;;;;;;;;;-2.80;92.19;90580.50;1064854;55;20173;-84
2020/12/04 01:10:20;;;;;;;;;;;;;;;-2.84;92.20;90571.97;1065740;55;20193;-83
2020/12/04 01:11:20;;;;;;;;;;;;;;;-2.89;92.51;90569.81;1065656;55;20184;-83
2020/12/04 01:12:21;;;;;;;;;;;;;;;-2.89;92.48;90572.41;1061384;56;20630;-82
2020/12/04 01:13:22;;;;;;;;;;;;;;;-2.83;92.00;90562.97;1061357;56;20166;-84
2020/12/04 01:14:22;;;;;;;;;;;;;;;-2.82;91.96;90564.47;1065711;55;20161;-83
2020/12/04 01:15:22;;;;;;;;;;;;;;;-2.90;91.73;90555.22;1065471;55;20254;-82
2020/12/04 01:16:23;;;;;;;;;;;;;;;-2.75;92.11;90555.78;1065654;55;20730;-82
2020/12/04 01:17:23;;;;;;;;;;;;;;;-2.79;91.21;90560.31;1067661;55;21112;-83
2020/12/04 01:18:24;;;;;;;;;;;;;;;-2.88;91.42;90566.03;1067910;55;20273;-83
2020/12/04 01:19:24;;;;;;;;;;;;;;;-2.88;91.60;90568.66;1063585;55;20189;-82
2020/12/04 01:20:25;;;;;;;;;;;;;;;-2.87;93.16;90567.53;1065749;55;20154;-83
2020/12/04 01:21:25;;;;;;;;;;;;;;;-2.92;92.32;90567.97;1065613;55;20185;-83
2020/12/04 01:22:26;;;;;;;;;;;;;;;-2.86;91.82;90566.38;1063594;55;20189;-83
2020/12/04 01:23:26;;;;;;;;;;;;;;;-2.89;92.06;90572.41;1061498;56;20193;-83
2020/12/04 01:24:27;;;;;;;;;;;;;;;-2.93;92.19;90568.38;1063681;55;20251;-83
2020/12/04 01:25:27;;;;;;;;;;;;;;;-2.92;92.98;90575.81;1061508;56;20169;-84
2020/12/04 01:26:28;;;;;;;;;;;;;;;-2.87;92.52;90569.41;1065735;55;20275;-84
2020/12/04 01:27:28;;;;;;;;;;;;;;;-2.88;92.65;90563.44;1067935;55;20161;-84
2020/12/04 01:28:29;;;;;;;;;;;;;;;-2.84;92.98;90568.62;1063627;55;20166;-82
2020/12/04 01:29:31;;;;;;;;;;;;;;;-2.79;92.47;90589.09;1063774;55;20270;-82
2020/12/04 01:30:31;;;;;;;;;;;;;;;-2.74;91.79;90588.63;1065723;55;20181;-84
2020/12/04 01:31:32;;;;;;;;;;;;;;;-2.84;91.96;90574.59;1067824;55;20176;-83
2020/12/04 01:32:32;;;;;;;;;;;;;;;-2.82;92.25;90576.78;1067876;55;20169;-84
2020/12/04 01:33:33;;;;;;;;;;;;;;;-2.83;90.99;90572.69;1067863;55;20183;-82
2020/12/04 01:34:33;;;;;;;;;;;;;;;-2.72;91.36;90567.31;1065542;55;20258;-83
2020/12/04 01:35:33;;;;;;;;;;;;;;;-2.70;91.71;90560.56;1063605;55;20161;-84
2020/12/04 01:36:34;;;;;;;;;;;;;;;-2.72;92.06;90555.00;1065756;55;20169;-83
2020/12/04 01:37:35;;;;;;;;;;;;;;;-2.73;91.11;90558.75;1063451;55;20251;-82
2020/12/04 01:38:36;;;;;;;;;;;;;;;-2.72;91.30;90559.47;1067793;55;20205;-84
2020/12/04 01:39:36;;;;;;;;;;;;;;;-2.73;91.50;90569.19;1065710;55;20244;-84
2020/12/04 01:40:37;;;;;;;;;;;;;;;-2.72;91.39;90557.63;1063593;55;20193;-83
2020/12/04 01:41:37;;;;;;;;;;;;;;;-2.69;90.60;90562.03;1063606;55;20644;-84
2020/12/04 01:42:38;;;;;;;;;;;;;;;-2.68;90.92;90555.66;1063528;55;20567;-83
2020/12/04 01:43:39;;;;;;;;;;;;;;;-2.64;91.15;90566.81;1061397;56;20244;-83
2020/12/04 01:44:39;;;;;;;;;;;;;;;-2.72;90.97;90555.00;1064299;55;20625;-84
2020/12/04 01:45:40;;;;;;;;;;;;;;;-2.66;90.28;90537.72;1067611;55;20165;-84
2020/12/04 01:46:41;;;;;;;;;;;;;;;-2.71;91.31;90543.41;1067856;55;20169;-83
2020/12/04 01:47:42;;;;;;;;;;;;;;;-2.80;91.17;90548.41;1065495;55;20193;-82
2020/12/04 01:48:45;;;;;;;;;;;;;;;-2.78;91.37;90552.06;1063380;55;20248;-82
2020/12/04 01:49:45;;;;;;;;;;;;;;;-2.85;91.02;90549.59;1065797;55;20165;-85
2020/12/04 01:50:46;;;;;;;;;;;;;;;-2.83;91.55;90546.56;1065831;55;20157;-84
2020/12/04 01:51:47;;;;;;;;;;;;;;;-2.77;91.63;90550.19;1063812;55;20185;-82
2020/12/04 01:52:49;;;;;;;;;;;;;;;-2.69;91.19;90554.19;1065860;55;20153;-82
2020/12/04 01:53:51;;;;;;;;;;;;;;;-2.69;91.11;90545.62;1065631;55;20158;-84
2020/12/04 01:54:52;;;;;;;;;;;;;;;-2.72;90.88;90539.31;1063534;55;21125;-83
2020/12/04 01:55:54;;;;;;;;;;;;;;;-2.77;91.60;90550.19;1065679;55;20731;-84
2020/12/04 01:56:55;;;;;;;;;;;;;;;-2.82;92.00;90554.00;1065508;55;20177;-83
2020/12/04 01:57:56;;;;;;;;;;;;;;;-2.84;91.55;90550.31;1063407;55;20259;-82
2020/12/04 01:58:57;;;;;;;;;;;;;;;-2.86;91.59;90545.47;1063531;55;20192;-84
2020/12/04 01:59:58;;;;;;;;;;;;;;;-2.83;92.08;90533.50;1067900;55;20245;-83
2020/12/04 02:00:58;;;;;;;;;;;;;;;-2.70;91.50;90542.28;1065783;55;20653;-83
2020/12/04 02:02:13;;;;;;;;;;;;;;;-2.75;91.35;90550.56;1061416;56;20150;-83
2020/12/04 02:03:14;;;;;;;;;;;;;;;-2.80;92.22;90558.84;1062367;55;20181;-83
2020/12/04 02:04:15;;;;;;;;;;;;;;;-2.81;92.14;90544.28;1061256;56;20184;-81
2020/12/04 02:05:15;;;;;;;;;;;;;;;-2.79;91.75;90558.44;1061304;55;20213;-84
2020/12/04 02:06:21;;;;;;;;;;;;;;;-2.81;91.89;90542.44;1061393;56;20162;-83
2020/12/04 02:07:40;;;;;;;;;;;;;;;-2.78;92.13;90530.44;1065814;55;20228;-83
2020/12/04 02:08:52;;;;;;;;;;;;;;;-2.75;92.43;90523.69;1069877;55;20200;-83
2020/12/04 02:09:54;;;;;;;;;;;;;;;-2.80;92.62;90537.94;1067180;55;20169;-82
2020/12/04 02:11:13;;;;;;;;;;;;;;;-2.76;92.15;90540.50;1065849;55;20189;-85
2020/12/04 02:12:16;;;;;;;;;;;;;;;-2.72;91.35;90544.56;1065743;55;20157;-84
2020/12/04 02:13:17;;;;;;;;;;;;;;;-2.74;92.90;90520.66;1061492;55;20197;-82
2020/12/04 02:14:20;;;;;;;;;;;;;;;-2.72;91.54;90523.62;1061542;55;20189;-83
2020/12/04 02:15:20;;;;;;;;;;;;;;;-2.69;91.89;90528.06;1061348;56;20185;-84
2020/12/04 02:16:22;;;;;;;;;;;;;;;-2.62;92.81;90530.56;1063076;55;20177;-84
2020/12/04 02:17:33;;;;;;;;;;;;;;;-2.73;91.87;90526.63;1061449;55;20166;-83
2020/12/04 02:18:36;;;;;;;;;;;;;;;-2.74;91.74;90522.53;1064464;55;20154;-83
2020/12/04 02:19:37;;;;;;;;;;;;;;;-2.72;92.41;90515.78;1065742;55;20661;-83
2020/12/04 02:20:38;;;;;;;;;;;;;;;-2.61;91.71;90502.53;1063534;55;21172;-87
2020/12/04 02:21:39;;;;;;;;;;;;;;;-2.64;91.46;90508.56;1063527;55;20166;-83
2020/12/04 02:22:40;;;;;;;;;;;;;;;-2.67;93.11;90512.72;1063406;55;20174;-82
2020/12/04 02:23:47;;;;;;;;;;;;;;;-2.67;93.19;90510.13;1063451;55;20169;-84
2020/12/04 02:24:48;;;;;;;;;;;;;;;-2.62;91.87;90512.28;1065933;55;20157;-82
2020/12/04 02:25:50;;;;;;;;;;;;;;;-2.61;91.17;90500.66;1067808;55;20180;-82
2020/12/04 02:26:50;;;;;;;;;;;;;;;-2.60;90.40;90501.41;1067668;55;20628;-82
2020/12/04 02:27:51;;;;;;;;;;;;;;;-2.58;90.18;90507.72;1065584;55;20184;-83
2020/12/04 02:28:51;;;;;;;;;;;;;;;-2.62;91.53;90493.22;1065634;55;20161;-83
2020/12/04 02:29:52;;;;;;;;;;;;;;;-2.51;91.48;90498.28;1065572;55;20246;-82
2020/12/04 02:30:52;;;;;;;;;;;;;;;-2.59;91.32;90498.41;1065602;55;20162;-82
2020/12/04 02:31:53;;;;;;;;;;;;;;;-2.60;91.97;90488.34;1065631;55;20164;-83
2020/12/04 02:32:53;;;;;;;;;;;;;;;-2.58;91.48;90496.53;1067811;55;20164;-82
2020/12/04 02:33:54;;;;;;;;;;;;;;;-2.54;90.98;90495.34;1065910;55;20166;-83
2020/12/04 02:34:55;;;;;;;;;;;;;;;-2.57;91.21;90503.22;1064349;55;20162;-82
2020/12/04 02:35:56;;;;;;;;;;;;;;;-2.62;91.61;90501.81;1067869;55;20593;-84
2020/12/04 02:36:56;;;;;;;;;;;;;;;-2.63;92.38;90507.44;1067925;55;20631;-82
2020/12/04 02:38:00;;;;;;;;;;;;;;;-2.65;92.03;90507.81;1065787;55;20196;-82
2020/12/04 02:39:01;;;;;;;;;;;;;;;-2.65;91.55;90496.63;1065742;55;20153;-83
2020/12/04 02:40:02;;;;;;;;;;;;;;;-2.60;92.40;90498.78;1065796;55;20149;-83
2020/12/04 02:41:09;;;;;;;;;;;;;;;-2.59;91.57;90503.63;1063808;55;20154;-82
2020/12/04 02:42:10;;;;;;;;;;;;;;;-2.52;91.14;90484.47;1065774;55;20162;-83
2020/12/04 02:43:10;;;;;;;;;;;;;;;-2.49;90.98;90491.53;1065840;55;20242;-84
2020/12/04 02:44:11;;;;;;;;;;;;;;;-2.54;90.40;90500.56;1063591;55;20154;-85
2020/12/04 02:45:12;;;;;;;;;;;;;;;-2.46;90.66;90503.06;1063733;55;20170;-83
2020/12/04 02:46:13;;;;;;;;;;;;;;;-2.49;90.27;90488.19;1061579;55;20189;-83
2020/12/04 02:47:14;;;;;;;;;;;;;;;-2.57;90.35;90498.75;1061616;55;20196;-84
2020/12/04 02:48:14;;;;;;;;;;;;;;;-2.59;90.47;90489.81;1063722;55;20165;-83
2020/12/04 02:49:15;;;;;;;;;;;;;;;-2.56;92.06;90489.75;1067988;55;20165;-83
2020/12/04 02:50:15;;;;;;;;;;;;;;;-2.56;91.58;90476.69;1065543;55;20149;-83
2020/12/04 02:51:16;;;;;;;;;;;;;;;-2.56;91.83;90492.38;1065905;55;20196;-84
2020/12/04 02:52:18;;;;;;;;;;;;;;;-2.54;91.11;90518.13;1066079;55;20180;-83
2020/12/04 02:53:19;;;;;;;;;;;;;;;-2.51;91.08;90488.56;1065945;55;20227;-85
2020/12/04 02:54:20;;;;;;;;;;;;;;;-2.40;90.42;90473.44;1065896;55;20240;-83
2020/12/04 02:55:20;;;;;;;;;;;;;;;-2.38;90.21;90499.91;1065992;55;20614;-82
2020/12/04 02:56:21;;;;;;;;;;;;;;;-2.53;90.20;90494.19;1063409;55;20151;-84
2020/12/04 02:57:21;;;;;;;;;;;;;;;-2.44;91.52;90506.75;1063333;55;20255;-83
2020/12/04 02:58:22;;;;;;;;;;;;;;;-2.48;90.29;90506.06;1065481;55;20161;-83
2020/12/04 02:59:22;;;;;;;;;;;;;;;-2.46;91.68;90497.81;1061208;56;20679;-85
2020/12/04 03:00:22;;;;;;;;;;;;;;;-2.47;91.66;90485.88;1063262;55;20662;-83
2020/12/04 03:01:23;;;;;;;;;;;;;;;-2.35;91.65;90486.06;1067703;55;20166;-84
2020/12/04 03:02:23;;;;;;;;;;;;;;;-2.41;91.06;90482.44;1065594;55;20641;-83
2020/12/04 03:03:24;;;;;;;;;;;;;;;-2.41;91.75;90479.09;1061164;56;20283;-83
2020/12/04 03:04:26;;;;;;;;;;;;;;;-2.38;91.42;90463.31;1063225;55;20197;-84
2020/12/04 03:05:26;;;;;;;;;;;;;;;-2.35;91.31;90467.00;1063377;55;20184;-84
2020/12/04 03:06:28;;;;;;;;;;;;;;;-2.34;91.12;90461.38;1063322;55;20181;-83
2020/12/04 03:07:28;;;;;;;;;;;;;;;-2.34;90.71;90463.97;1065499;55;20188;-82
2020/12/04 03:08:29;;;;;;;;;;;;;;;-2.26;90.54;90464.59;1060957;56;20158;-84
2020/12/04 03:09:29;;;;;;;;;;;;;;;-2.28;90.89;90459.06;1063679;55;20256;-84
2020/12/04 03:10:30;;;;;;;;;;;;;;;-2.28;90.62;90485.22;1065534;55;20165;-83
2020/12/04 03:11:30;;;;;;;;;;;;;;;-2.29;90.33;90462.78;1067708;55;20157;-84
2020/12/04 03:12:32;;;;;;;;;;;;;;;-2.32;91.31;90474.06;1065384;55;20262;-83
2020/12/04 03:13:33;;;;;;;;;;;;;;;-2.32;90.85;90476.69;1065452;55;20255;-85
2020/12/04 03:14:33;;;;;;;;;;;;;;;-2.36;90.75;90489.81;1061181;55;20623;-85
2020/12/04 03:15:34;;;;;;;;;;;;;;;-2.29;92.07;90486.31;1063042;55;20177;-84
2020/12/04 03:16:34;;;;;;;;;;;;;;;-2.23;90.54;90473.53;1065386;55;20641;-83
2020/12/04 03:17:35;;;;;;;;;;;;;;;-2.17;90.36;90480.50;1065332;55;20181;-83
2020/12/04 03:18:35;;;;;;;;;;;;;;;-2.19;89.89;90469.72;1063374;55;20162;-83
2020/12/04 03:19:36;;;;;;;;;;;;;;;-2.23;90.91;90484.00;1061111;56;20193;-83
2020/12/04 03:20:36;;;;;;;;;;;;;;;-2.23;91.12;90484.75;1063368;55;20176;-84
2020/12/04 03:21:37;;;;;;;;;;;;;;;-2.15;90.68;90482.72;1063441;55;20181;-83
2020/12/04 03:22:37;;;;;;;;;;;;;;;-2.15;90.55;90495.81;1061212;56;20610;-83
2020/12/04 03:23:38;;;;;;;;;;;;;;;-2.18;91.04;90492.12;1063287;55;20180;-84
2020/12/04 03:24:39;;;;;;;;;;;;;;;-2.16;90.29;90496.94;1063347;55;20158;-82
2020/12/04 03:25:39;;;;;;;;;;;;;;;-2.18;90.46;90502.59;1061346;55;20166;-83
2020/12/04 03:26:40;;;;;;;;;;;;;;;-2.22;90.80;90506.41;1061374;56;20244;-85
2020/12/04 03:27:40;;;;;;;;;;;;;;;-2.26;90.90;90503.84;1059064;56;20556;-82
2020/12/04 03:28:41;;;;;;;;;;;;;;;-2.25;90.88;90504.59;1061160;56;20177;-84
2020/12/04 03:29:42;;;;;;;;;;;;;;;-2.28;91.01;90503.53;1061184;56;20158;-83
2020/12/04 03:30:42;;;;;;;;;;;;;;;-2.29;90.58;90508.00;1063203;55;20146;-83
2020/12/04 03:31:43;;;;;;;;;;;;;;;-2.25;90.52;90518.41;1063280;55;20200;-83
2020/12/04 03:32:44;;;;;;;;;;;;;;;-2.31;91.39;90520.00;1063390;55;20229;-83
2020/12/04 03:33:45;;;;;;;;;;;;;;;-2.32;91.50;90497.59;1065573;55;20709;-84
2020/12/04 03:34:46;;;;;;;;;;;;;;;-2.24;90.87;90492.97;1065367;55;20733;-84
2020/12/04 03:35:47;;;;;;;;;;;;;;;-2.17;90.59;90496.22;1063268;55;20158;-83
2020/12/04 03:36:47;;;;;;;;;;;;;;;-2.20;90.79;90483.19;1065413;55;20247;-83
2020/12/04 03:37:48;;;;;;;;;;;;;;;-2.16;90.70;90497.69;1063294;55;20202;-83
2020/12/04 03:38:48;;;;;;;;;;;;;;;-2.10;89.90;90495.38;1065407;55;20180;-84
2020/12/04 03:39:49;;;;;;;;;;;;;;;-2.21;90.62;90492.91;1063344;55;21232;-84
2020/12/04 03:40:49;;;;;;;;;;;;;;;-2.16;91.18;90487.22;1065592;55;20261;-83
2020/12/04 03:41:50;;;;;;;;;;;;;;;-2.15;90.21;90490.56;1067684;55;20181;-84
2020/12/04 03:42:50;;;;;;;;;;;;;;;-2.11;89.86;90493.88;1063359;55;20162;-84
2020/12/04 03:43:51;;;;;;;;;;;;;;;-2.18;90.35;90494.75;1061319;56;20161;-84
2020/12/04 03:44:52;;;;;;;;;;;;;;;-2.22;90.98;90488.09;1061227;55;20154;-85
2020/12/04 03:45:53;;;;;;;;;;;;;;;-2.15;90.47;90488.72;1061169;56;20567;-84
2020/12/04 03:46:53;;;;;;;;;;;;;;;-2.16;90.82;90491.72;1063383;55;20161;-83
2020/12/04 03:47:54;;;;;;;;;;;;;;;-2.13;90.65;90489.03;1067691;55;20231;-84
2020/12/04 03:48:54;;;;;;;;;;;;;;;-2.19;90.81;90495.16;1065452;55;20169;-85
2020/12/04 03:49:55;;;;;;;;;;;;;;;-2.11;90.32;90493.88;1061135;56;20245;-84
2020/12/04 03:50:55;;;;;;;;;;;;;;;-2.15;90.52;90495.81;1063239;55;20162;-83
2020/12/04 03:51:56;;;;;;;;;;;;;;;-2.12;90.95;90492.41;1065374;55;20547;-83
2020/12/04 03:52:56;;;;;;;;;;;;;;;-2.04;90.24;90497.09;1065408;55;20266;-84
2020/12/04 03:53:56;;;;;;;;;;;;;;;-2.08;90.32;90491.19;1065447;55;20176;-83
2020/12/04 03:54:57;;;;;;;;;;;;;;;-2.14;91.36;90487.56;1063264;55;20220;-84
2020/12/04 03:55:58;;;;;;;;;;;;;;;-2.21;91.45;90498.16;1065511;55;20197;-83
2020/12/04 03:56:58;;;;;;;;;;;;;;;-2.07;91.10;90502.41;1067745;55;20188;-84
2020/12/04 03:57:59;;;;;;;;;;;;;;;-1.96;90.45;90502.22;1065365;55;20180;-84
2020/12/04 03:58:59;;;;;;;;;;;;;;;-2.10;91.00;90503.94;1061184;56;20158;-83
2020/12/04 04:00:00;;;;;;;;;;;;;;;-2.06;91.28;90509.88;1063198;56;20739;-84
2020/12/04 04:01:00;;;;;;;;;;;;;;;-2.15;91.93;90507.03;1063338;56;20279;-82
2020/12/04 04:02:00;;;;;;;;;;;;;;;-2.13;91.68;90514.47;1063187;56;20267;-83
2020/12/04 04:03:01;;;;;;;;;;;;;;;-2.14;91.65;90508.50;1063278;56;20308;-84
2020/12/04 04:04:01;;;;;;;;;;;;;;;-2.10;91.86;90514.41;1063224;56;20154;-84
2020/12/04 04:05:02;;;;;;;;;;;;;;;-1.99;91.79;90513.47;1063225;56;20672;-83
2020/12/04 04:06:02;;;;;;;;;;;;;;;-1.95;90.86;90514.91;1063305;56;20301;-84
2020/12/04 04:07:03;;;;;;;;;;;;;;;-1.97;90.85;90513.84;1063117;56;20176;-83
2020/12/04 04:08:03;;;;;;;;;;;;;;;-1.99;91.40;90518.72;1063210;56;20225;-84
2020/12/04 04:09:04;;;;;;;;;;;;;;;-2.04;92.14;90506.84;1063194;56;20267;-83
2020/12/04 04:10:04;;;;;;;;;;;;;;;-2.07;92.04;90518.84;1064150;55;20184;-83
2020/12/04 04:11:05;;;;;;;;;;;;;;;-2.08;92.17;90506.91;1065233;55;20243;-84
2020/12/04 04:12:05;;;;;;;;;;;;;;;-2.08;92.73;90500.91;1063045;56;20150;-83
2020/12/04 04:13:08;;;;;;;;;;;;;;;-1.87;92.19;90508.41;1061151;55;21099;-83
2020/12/04 04:14:08;;;;;;;;;;;;;;;-1.97;91.35;90511.22;1061015;56;20181;-83
2020/12/04 04:15:09;;;;;;;;;;;;;;;-1.97;91.61;90511.94;1061036;56;20184;-83
2020/12/04 04:16:10;;;;;;;;;;;;;;;-1.83;91.66;90518.81;1063125;56;20162;-85
2020/12/04 04:17:10;;;;;;;;;;;;;;;-1.88;91.35;90514.78;1063075;56;20173;-82
2020/12/04 04:18:10;;;;;;;;;;;;;;;-1.94;91.11;90518.25;1065305;55;20189;-82
2020/12/04 04:19:11;;;;;;;;;;;;;;;-1.88;91.52;90514.03;1061055;56;20162;-84
2020/12/04 04:20:11;;;;;;;;;;;;;;;-1.88;91.12;90517.41;1063205;56;20166;-82
2020/12/04 04:21:13;;;;;;;;;;;;;;;-1.89;91.05;90510.69;1065164;55;20207;-83
2020/12/04 04:22:13;;;;;;;;;;;;;;;-1.92;91.04;90505.50;1063132;55;20173;-83
2020/12/04 04:23:14;;;;;;;;;;;;;;;-1.94;91.63;90500.66;1063091;55;20261;-84
2020/12/04 04:24:14;;;;;;;;;;;;;;;-2.01;91.84;90497.47;1065288;55;20250;-84
2020/12/04 04:25:15;;;;;;;;;;;;;;;-2.03;91.61;90485.50;1063010;56;20181;-83
2020/12/04 04:26:16;;;;;;;;;;;;;;;-2.05;91.80;90489.66;1062979;56;20649;-82
2020/12/04 04:27:16;;;;;;;;;;;;;;;-1.95;91.91;90490.59;1065571;55;20169;-84
2020/12/04 04:28:16;;;;;;;;;;;;;;;-2.01;92.11;90489.59;1065602;55;20184;-82
2020/12/04 04:29:17;;;;;;;;;;;;;;;-2.05;92.06;90482.53;1063641;55;20247;-83
2020/12/04 04:30:18;;;;;;;;;;;;;;;-1.97;91.97;90485.78;1063524;55;20170;-82
2020/12/04 04:31:18;;;;;;;;;;;;;;;-1.93;92.49;90480.47;1061427;56;20248;-82
2020/12/04 04:32:21;;;;;;;;;;;;;;;-1.87;91.66;90479.59;1063679;55;20165;-83
2020/12/04 04:33:22;;;;;;;;;;;;;;;-1.88;91.42;90472.91;1063510;55;20647;-82
2020/12/04 04:34:23;;;;;;;;;;;;;;;-1.90;91.70;90477.03;1061342;56;20614;-84
2020/12/04 04:35:23;;;;;;;;;;;;;;;-1.87;92.21;90478.88;1061403;56;20626;-83
2020/12/04 04:36:24;;;;;;;;;;;;;;;-1.83;91.75;90471.69;1065596;55;20189;-82
2020/12/04 04:37:24;;;;;;;;;;;;;;;-1.84;91.58;90476.19;1065477;55;20157;-83
2020/12/04 04:38:25;;;;;;;;;;;;;;;-1.88;91.57;90467.66;1063475;55;20157;-83
2020/12/04 04:39:25;;;;;;;;;;;;;;;-1.92;92.07;90472.22;1063515;55;20626;-84
2020/12/04 04:40:26;;;;;;;;;;;;;;;-1.85;91.55;90469.44;1061271;56;20690;-82
2020/12/04 04:41:27;;;;;;;;;;;;;;;-1.88;91.57;90478.12;1063618;55;20586;-83
2020/12/04 04:42:28;;;;;;;;;;;;;;;-1.90;91.56;90482.28;1063633;55;20189;-82
2020/12/04 04:43:30;;;;;;;;;;;;;;;-1.84;92.08;90475.44;1063540;55;20680;-83
2020/12/04 04:44:30;;;;;;;;;;;;;;;-1.83;91.25;90474.31;1067849;55;20201;-83
2020/12/04 04:45:31;;;;;;;;;;;;;;;-1.87;91.96;90481.47;1065681;55;20617;-83
2020/12/04 04:46:31;;;;;;;;;;;;;;;-1.76;91.56;90489.84;1063369;55;20630;-83
2020/12/04 04:47:35;;;;;;;;;;;;;;;-1.63;90.85;90495.97;1065601;55;20240;-82
2020/12/04 04:48:36;;;;;;;;;;;;;;;-1.79;91.11;90498.53;1061193;56;20159;-83
2020/12/04 04:49:37;;;;;;;;;;;;;;;-1.68;90.91;90491.22;1061228;56;20752;-83
2020/12/04 04:50:40;;;;;;;;;;;;;;;-1.74;91.26;90492.84;1063627;55;20165;-84
2020/12/04 04:51:41;;;;;;;;;;;;;;;-1.60;90.68;90486.56;1063564;55;20153;-83
2020/12/04 04:52:42;;;;;;;;;;;;;;;-1.63;90.88;90492.62;1063632;55;20190;-82
2020/12/04 04:53:44;;;;;;;;;;;;;;;-1.55;90.87;90488.72;1063525;55;20672;-82
2020/12/04 04:54:48;;;;;;;;;;;;;;;-1.56;90.31;90485.38;1063448;55;20196;-82
2020/12/04 04:55:48;;;;;;;;;;;;;;;-1.60;90.43;90497.78;1059536;56;20158;-83
2020/12/04 04:56:50;;;;;;;;;;;;;;;-1.52;90.96;90496.50;1061439;56;20189;-83
2020/12/04 04:57:50;;;;;;;;;;;;;;;-1.56;91.40;90505.59;1063491;55;20162;-83
2020/12/04 04:58:51;;;;;;;;;;;;;;;-1.44;90.47;90496.37;1061376;56;20185;-83
2020/12/04 04:59:52;;;;;;;;;;;;;;;-1.40;89.87;90497.06;1061225;56;20246;-82
2020/12/04 05:00:53;;;;;;;;;;;;;;;-1.47;89.70;90489.31;1065685;55;20169;-83
2020/12/04 05:01:54;;;;;;;;;;;;;;;-1.52;90.39;90488.66;1065607;55;20204;-83
2020/12/04 05:02:54;;;;;;;;;;;;;;;-1.57;91.08;90485.78;1061292;56;20771;-84
2020/12/04 05:03:58;;;;;;;;;;;;;;;-1.63;91.27;90490.72;1061277;56;20170;-82
2020/12/04 05:04:59;;;;;;;;;;;;;;;-1.61;91.34;90488.47;1063503;55;20298;-84
2020/12/04 05:05:59;;;;;;;;;;;;;;;-1.60;91.53;90491.81;1063487;55;20181;-83
2020/12/04 05:07:00;;;;;;;;;;;;;;;-1.52;91.22;90496.50;1063566;55;20705;-83
2020/12/04 05:08:08;;;;;;;;;;;;;;;-1.47;90.29;90491.94;1063504;55;20243;-83
2020/12/04 05:09:15;;;;;;;;;;;;;;;-1.45;90.38;90481.78;1064221;55;20188;-84
2020/12/04 05:10:18;;;;;;;;;;;;;;;-1.50;90.72;90483.00;1068237;55;20187;-82
2020/12/04 05:11:18;;;;;;;;;;;;;;;-1.50;90.72;90469.91;1065382;55;20710;-82
2020/12/04 05:12:20;;;;;;;;;;;;;;;-1.54;91.05;90475.25;1063611;55;20643;-83
2020/12/04 05:13:21;;;;;;;;;;;;;;;-1.55;91.00;90478.25;1063522;55;20219;-83
2020/12/04 05:14:25;;;;;;;;;;;;;;;-1.47;90.67;90471.72;1061363;56;20260;-83
2020/12/04 05:15:27;;;;;;;;;;;;;;;-1.44;90.48;90467.56;1063760;55;20176;-83
2020/12/04 05:16:28;;;;;;;;;;;;;;;-1.48;90.65;90469.53;1065853;55;20173;-84
2020/12/04 05:17:28;;;;;;;;;;;;;;;-1.50;91.46;90469.16;1067790;55;20261;-82
2020/12/04 05:18:29;;;;;;;;;;;;;;;-1.55;91.97;90467.75;1065667;55;20234;-82